createdAt,value
2023-04-18T00:01:01.734Z,102766.78
2023-04-18T00:04:05.139Z,102768.75
2023-04-18T00:07:07.992Z,102762.97
2023-04-18T00:10:10.751Z,102768.06
2023-04-18T00:13:14.642Z,102774.81
2023-04-18T00:16:17.230Z,102779.31
2023-04-18T00:19:20.079Z,102778.25
2023-04-18T00:22:22.757Z,102785.53
2023-04-18T00:25:25.417Z,102772.00
2023-04-18T00:28:29.435Z,102773.41
2023-04-18T00:31:32.499Z,102780.16
2023-04-18T00:34:35.032Z,102775.22
2023-04-18T00:37:38.121Z,102768.56
2023-04-18T00:40:41.091Z,102765.28
2023-04-18T00:43:45.023Z,102766.41
2023-04-18T00:46:48.202Z,102772.25
2023-04-18T00:49:50.751Z,102765.63
2023-04-18T00:52:53.266Z,102768.72
2023-04-18T00:55:56.049Z,102757.34
2023-04-18T00:59:00.251Z,102754.88
2023-04-18T01:02:03.794Z,102760.44
2023-04-18T01:05:07.227Z,102754.06
2023-04-18T01:08:09.809Z,102760.44
2023-04-18T01:11:12.388Z,102758.78
2023-04-18T01:14:16.329Z,102758.78
2023-04-18T01:17:19.231Z,102769.88
2023-04-18T01:20:22.656Z,102761.00
2023-04-18T01:23:25.809Z,102751.56
2023-04-18T01:26:29.929Z,102757.69
2023-04-18T01:29:32.495Z,102749.69
2023-04-18T01:32:35.008Z,102755.53
2023-04-18T01:35:37.540Z,102752.19
2023-04-18T01:38:40.112Z,102751.69
2023-04-18T01:41:44.004Z,102753.91
2023-04-18T01:44:46.576Z,102740.63
2023-04-18T01:47:49.206Z,102745.41
2023-04-18T01:50:51.740Z,102746.28
2023-04-18T01:53:54.338Z,102742.47
2023-04-18T01:56:58.232Z,102747.47
2023-04-18T02:00:01.741Z,102747.53
2023-04-18T02:03:04.618Z,102750.34
2023-04-18T02:06:07.871Z,102747.03
2023-04-18T02:09:10.728Z,102735.72
2023-04-18T02:12:14.582Z,102733.78
2023-04-18T02:15:17.066Z,102745.19
2023-04-18T02:18:19.598Z,102737.72
2023-04-18T02:21:22.636Z,102733.88
2023-04-18T02:24:25.201Z,102738.38
2023-04-18T02:27:29.100Z,102732.34
2023-04-18T02:30:31.611Z,102738.44
2023-04-18T02:33:34.166Z,102726.28
2023-04-18T02:36:36.760Z,102727.97
2023-04-18T02:39:39.299Z,102725.25
2023-04-18T02:42:43.203Z,102719.47
2023-04-18T02:45:45.799Z,102736.97
2023-04-18T02:48:48.384Z,102734.78
2023-04-18T02:51:50.991Z,102734.53
2023-04-18T02:54:53.539Z,102744.25
2023-04-18T02:57:57.807Z,102734.53
2023-04-18T03:01:00.595Z,102733.75
2023-04-18T03:04:03.249Z,102732.66
2023-04-18T03:07:05.822Z,102729.94
2023-04-18T03:10:08.867Z,102735.75
2023-04-18T03:13:12.762Z,102734.91
2023-04-18T03:16:15.828Z,102743.84
2023-04-18T03:19:18.470Z,102741.63
2023-04-18T03:22:20.991Z,102747.75
2023-04-18T03:25:23.504Z,102751.34
2023-04-18T03:28:27.386Z,102743.91
2023-04-18T03:31:29.953Z,102746.13
2023-04-18T03:34:32.507Z,102746.72
2023-04-18T03:37:35.145Z,102739.50
2023-04-18T03:40:37.706Z,102746.44
2023-04-18T03:43:41.634Z,102740.66
2023-04-18T03:46:44.189Z,102745.13
2023-04-18T03:49:46.742Z,102741.78
2023-04-18T03:52:49.269Z,102740.13
2023-04-18T03:55:51.819Z,102732.94
2023-04-18T03:58:55.696Z,102736.25
2023-04-18T04:01:58.376Z,102733.47
2023-04-18T04:05:02.561Z,102733.22
2023-04-18T04:08:06.717Z,102751.19
2023-04-18T04:11:09.378Z,102742.59
2023-04-18T04:14:13.487Z,102744.53
2023-04-18T04:17:16.382Z,102743.16
2023-04-18T04:20:24.093Z,102742.31
2023-04-18T04:23:26.784Z,102750.34
2023-04-18T04:26:30.676Z,102751.97
2023-04-18T04:29:35.209Z,102747.28
2023-04-18T04:32:38.901Z,102747.00
2023-04-18T04:35:41.777Z,102752.25
2023-04-18T04:38:44.951Z,102749.50
2023-04-18T04:41:47.521Z,102746.13
2023-04-18T04:44:53.604Z,102749.44
2023-04-18T04:47:56.174Z,102749.44
2023-04-18T04:50:59.509Z,102756.66
2023-04-18T04:54:02.046Z,102752.22
2023-04-18T04:57:05.269Z,102751.97
2023-04-18T05:00:11.360Z,102750.59
2023-04-18T05:03:14.065Z,102755.59
2023-04-18T05:06:20.517Z,102760.59
2023-04-18T05:09:23.079Z,102753.97
2023-04-18T05:12:26.755Z,102756.22
2023-04-18T05:15:30.633Z,102755.66
2023-04-18T05:18:35.124Z,102773.97
2023-04-18T05:21:37.883Z,102761.50
2023-04-18T05:24:41.124Z,102763.72
2023-04-18T05:27:43.994Z,102768.41
2023-04-18T05:30:47.921Z,102773.97
2023-04-18T05:33:50.455Z,102776.72
2023-04-18T05:36:53.038Z,102777.88
2023-04-18T05:39:55.675Z,102778.97
2023-04-18T05:42:58.220Z,102773.44
2023-04-18T05:46:02.109Z,102785.03
2023-04-18T05:49:04.729Z,102773.13
2023-04-18T05:52:07.294Z,102774.50
2023-04-18T05:55:10.520Z,102786.72
2023-04-18T05:58:13.100Z,102793.34
2023-04-18T06:01:18.510Z,102786.72
2023-04-18T06:04:21.666Z,102793.34
2023-04-18T06:07:25.350Z,102792.25
2023-04-18T06:10:27.853Z,102796.69
2023-04-18T06:13:30.332Z,102786.69
2023-04-18T06:16:34.319Z,102791.41
2023-04-18T06:19:36.987Z,102792.22
2023-04-18T06:22:39.573Z,102797.22
2023-04-18T06:25:42.272Z,102804.41
2023-04-18T06:28:44.810Z,102803.81
2023-04-18T06:31:48.707Z,102809.38
2023-04-18T06:34:52.804Z,102804.94
2023-04-18T06:37:55.522Z,102798.28
2023-04-18T06:40:58.116Z,102801.38
2023-04-18T06:44:04.199Z,102814.63
2023-04-18T06:47:08.628Z,102804.38
2023-04-18T06:50:11.593Z,102807.16
2023-04-18T06:53:14.183Z,102797.75
2023-04-18T06:56:16.759Z,102801.03
2023-04-18T06:59:21.331Z,102803.53
2023-04-18T07:02:25.291Z,102791.06
2023-04-18T07:05:27.876Z,102806.00
2023-04-18T07:08:30.725Z,102792.09
2023-04-18T07:11:33.296Z,102799.28
2023-04-18T07:14:35.878Z,102813.13
2023-04-18T07:17:39.873Z,102810.31
2023-04-18T07:20:42.654Z,102810.00
2023-04-18T07:23:45.176Z,102810.28
2023-04-18T07:26:47.741Z,102810.00
2023-04-18T07:29:50.340Z,102811.94
2023-04-18T07:32:54.304Z,102810.28
2023-04-18T07:35:56.953Z,102810.28
2023-04-18T07:38:59.499Z,102817.50
2023-04-18T07:42:02.328Z,102819.16
2023-04-18T07:45:05.770Z,102818.56
2023-04-18T07:48:09.717Z,102811.91
2023-04-18T07:51:12.294Z,102816.34
2023-04-18T07:54:14.866Z,102813.53
2023-04-18T07:57:17.403Z,102809.91
2023-04-18T08:00:20.399Z,102807.94
2023-04-18T08:03:24.492Z,102807.31
2023-04-18T08:06:27.429Z,102806.69
2023-04-18T08:09:30.022Z,102811.09
2023-04-18T08:12:32.570Z,102811.09
2023-04-18T08:15:35.207Z,102812.16
2023-04-18T08:18:39.095Z,102812.16
2023-04-18T08:21:41.709Z,102815.69
2023-04-18T08:25:01.029Z,102807.03
2023-04-18T08:28:06.647Z,102808.66
2023-04-18T08:31:13.009Z,102805.63
2023-04-18T08:34:16.914Z,102804.22
2023-04-18T08:37:19.506Z,102817.50
2023-04-18T08:40:22.154Z,102814.69
2023-04-18T08:43:25.340Z,102811.31
2023-04-18T08:46:29.969Z,102827.09
2023-04-18T08:49:33.917Z,102815.38
2023-04-18T08:52:37.631Z,102811.34
2023-04-18T08:55:40.455Z,102802.59
2023-04-18T08:58:45.085Z,102790.22
2023-04-18T09:01:52.814Z,102797.31
2023-04-18T09:04:57.379Z,102798.97
2023-04-18T09:07:59.949Z,102801.09
2023-04-18T09:11:24.010Z,102807.34
2023-04-18T09:14:27.225Z,102792.78
2023-04-18T09:17:33.921Z,102786.84
2023-04-18T09:20:39.907Z,102793.47
2023-04-18T09:23:42.411Z,102794.56
2023-04-18T09:26:44.922Z,102800.00
2023-04-18T09:29:49.336Z,102797.59
2023-04-18T09:32:58.261Z,102790.81
2023-04-18T09:36:20.815Z,102795.91
2023-04-18T09:39:28.118Z,102778.56
2023-04-18T09:42:32.025Z,102786.44
2023-04-18T09:45:34.560Z,102784.19
2023-04-18T09:48:37.162Z,102780.47
2023-04-18T09:51:41.416Z,102788.56
2023-04-18T09:54:44.862Z,102781.97
2023-04-18T09:57:49.289Z,102791.09
2023-04-18T10:00:52.169Z,102779.31
2023-04-18T10:03:54.810Z,102792.66
2023-04-18T10:06:58.838Z,102791.09
2023-04-18T10:10:01.366Z,102779.72
2023-04-18T10:13:03.892Z,102776.50
2023-04-18T10:16:06.886Z,102781.34
2023-04-18T10:19:23.561Z,102770.72
2023-04-18T10:22:29.366Z,102771.03
2023-04-18T10:25:49.182Z,102764.63
2023-04-18T10:28:54.439Z,102770.63
2023-04-18T10:31:57.366Z,102753.31
2023-04-18T10:35:00.483Z,102753.72
2023-04-18T10:38:04.324Z,102757.75
2023-04-18T10:41:23.597Z,102744.03
2023-04-18T10:44:27.464Z,102759.72
2023-04-18T10:47:30.073Z,102758.66
2023-04-18T10:50:32.825Z,102754.25
2023-04-18T10:53:36.696Z,102743.19
2023-04-18T10:56:39.563Z,102747.75
2023-04-18T10:59:43.731Z,102740.50
2023-04-18T11:02:50.267Z,102748.38
2023-04-18T11:05:52.965Z,102751.66
2023-04-18T11:09:12.440Z,102752.72
2023-04-18T11:12:14.984Z,102745.47
2023-04-18T11:15:21.218Z,102736.28
2023-04-18T11:18:23.934Z,102738.06
2023-04-18T11:21:30.319Z,102752.78
2023-04-18T11:24:34.888Z,102746.72
2023-04-18T11:27:37.431Z,102739.91
2023-04-18T11:30:40.334Z,102739.78
2023-04-18T11:33:42.854Z,102736.91
2023-04-18T11:36:45.417Z,102743.59
2023-04-18T11:39:49.325Z,102745.06
2023-04-18T11:42:51.867Z,102746.50
2023-04-18T11:45:54.984Z,102740.09
2023-04-18T11:48:57.587Z,102751.47
2023-04-18T11:52:01.081Z,102730.19
2023-04-18T11:55:14.011Z,102750.22
2023-04-18T11:58:16.760Z,102746.91
2023-04-18T12:01:19.700Z,102743.19
2023-04-18T12:04:22.531Z,102733.50
2023-04-18T12:07:35.966Z,102745.88
2023-04-18T12:10:46.069Z,102750.22
2023-04-18T12:13:48.668Z,102733.69
2023-04-18T12:16:51.192Z,102738.22
2023-04-18T12:19:55.391Z,102742.34
2023-04-18T12:22:58.474Z,102756.00
2023-04-18T12:26:03.636Z,102764.34
2023-04-18T12:29:06.192Z,102747.63
2023-04-18T12:32:08.698Z,102747.09
2023-04-18T12:35:11.276Z,102748.09
2023-04-18T12:38:13.785Z,102742.09
2023-04-18T12:41:17.736Z,102738.34
2023-04-18T12:44:20.784Z,102742.06
2023-04-18T12:47:23.336Z,102739.97
2023-04-18T12:50:26.597Z,102730.06
2023-04-18T12:53:29.182Z,102733.63
2023-04-18T12:56:33.093Z,102734.84
2023-04-18T12:59:35.681Z,102725.69
2023-04-18T13:02:38.794Z,102732.28
2023-04-18T13:05:41.623Z,102720.50
2023-04-18T13:08:44.494Z,102730.00
2023-04-18T13:11:49.608Z,102733.41
2023-04-18T13:14:52.277Z,102731.28
2023-04-18T13:17:55.826Z,102737.34
2023-04-18T13:20:58.404Z,102723.38
2023-04-18T13:24:00.945Z,102735.38
2023-04-18T13:27:10.213Z,102725.03
2023-04-18T13:30:13.053Z,102730.63
2023-04-18T13:33:15.704Z,102731.28
2023-04-18T13:36:18.294Z,102700.06
2023-04-18T13:39:21.384Z,102724.66
2023-04-18T13:42:25.312Z,102723.03
2023-04-18T13:45:28.249Z,102727.97
2023-04-18T13:48:30.898Z,102729.31
2023-04-18T13:51:33.804Z,102728.34
2023-04-18T13:54:37.272Z,102726.88
2023-04-18T13:57:41.235Z,102722.78
2023-04-18T14:00:43.833Z,102719.97
2023-04-18T14:03:47.269Z,102722.44
2023-04-18T14:06:50.059Z,102712.09
2023-04-18T14:09:53.823Z,102713.94
2023-04-18T14:12:58.006Z,102719.38
2023-04-18T14:16:00.718Z,102717.25
2023-04-18T14:19:03.349Z,102721.81
2023-04-18T14:22:07.118Z,102713.44
2023-04-18T14:25:10.865Z,102705.41
2023-04-18T14:28:15.609Z,102699.34
2023-04-18T14:31:18.156Z,102709.06
2023-04-18T14:34:20.775Z,102701.69
2023-04-18T14:37:23.332Z,102712.88
2023-04-18T14:40:25.924Z,102698.88
2023-04-18T14:43:29.909Z,102706.59
2023-04-18T14:46:32.499Z,102706.59
2023-04-18T14:49:35.119Z,102698.72
2023-04-18T14:52:37.709Z,102709.09
2023-04-18T14:55:40.424Z,102692.50
2023-04-18T14:58:44.802Z,102705.34
2023-04-18T15:01:47.472Z,102687.56
2023-04-18T15:04:50.935Z,102697.06
2023-04-18T15:07:53.499Z,102683.44
2023-04-18T15:10:56.182Z,102693.81
2023-04-18T15:14:00.131Z,102677.03
2023-04-18T15:17:02.883Z,102682.63
2023-04-18T15:20:07.275Z,102681.97
2023-04-18T15:23:13.491Z,102688.88
2023-04-18T15:26:16.424Z,102686.91
2023-04-18T15:29:20.621Z,102680.66
2023-04-18T15:32:23.246Z,102682.31
2023-04-18T15:35:26.194Z,102666.88
2023-04-18T15:38:29.668Z,102665.88
2023-04-18T15:41:34.792Z,102668.50
2023-04-18T15:44:38.699Z,102661.59
2023-04-18T15:47:41.636Z,102653.06
2023-04-18T15:50:44.222Z,102661.94
2023-04-18T15:53:46.751Z,102652.88
2023-04-18T15:56:49.286Z,102659.66
2023-04-18T15:59:53.133Z,102657.34
2023-04-18T16:02:55.853Z,102658.81
2023-04-18T16:05:58.482Z,102650.75
2023-04-18T16:09:01.041Z,102669.72
2023-04-18T16:12:04.624Z,102662.47
2023-04-18T16:15:09.782Z,102636.44
2023-04-18T16:18:12.326Z,102652.56
2023-04-18T16:21:15.147Z,102662.28
2023-04-18T16:24:17.741Z,102649.78
2023-04-18T16:27:20.513Z,102663.78
2023-04-18T16:30:24.388Z,102641.53
2023-04-18T16:33:27.073Z,102673.31
2023-04-18T16:36:29.741Z,102665.94
2023-04-18T16:39:32.270Z,102666.25
2023-04-18T16:42:34.812Z,102662.13
2023-04-18T16:45:38.740Z,102660.81
2023-04-18T16:48:41.707Z,102660.81
2023-04-18T16:51:44.232Z,102652.06
2023-04-18T16:54:46.825Z,102655.38
2023-04-18T16:57:49.349Z,102653.09
2023-04-18T17:00:53.668Z,102657.19
2023-04-18T17:03:56.299Z,102647.63
2023-04-18T17:06:59.023Z,102653.09
2023-04-18T17:10:01.593Z,102646.66
2023-04-18T17:13:04.411Z,102656.19
2023-04-18T17:16:08.870Z,102648.31
2023-04-18T17:19:11.485Z,102646.34
2023-04-18T17:22:14.091Z,102654.06
2023-04-18T17:25:16.681Z,102651.75
2023-04-18T17:28:19.420Z,102661.31
2023-04-18T17:31:23.415Z,102649.28
2023-04-18T17:34:26.900Z,102646.81
2023-04-18T17:37:29.422Z,102642.84
2023-04-18T17:40:31.911Z,102652.41
2023-04-18T17:43:34.440Z,102657.53
2023-04-18T17:46:38.416Z,102660.81
2023-04-18T17:49:40.956Z,102657.19
2023-04-18T17:52:43.919Z,102657.19
2023-04-18T17:55:50.343Z,102661.16
2023-04-18T17:58:55.285Z,102660.66
2023-04-18T18:02:00.377Z,102665.44
2023-04-18T18:05:02.899Z,102663.28
2023-04-18T18:08:05.782Z,102662.13
2023-04-18T18:11:08.920Z,102659.31
2023-04-18T18:14:11.467Z,102665.59
2023-04-18T18:17:15.313Z,102675.97
2023-04-18T18:20:17.913Z,102667.88
2023-04-18T18:23:20.471Z,102671.84
2023-04-18T18:26:22.964Z,102669.72
2023-04-18T18:29:25.541Z,102665.91
2023-04-18T18:32:29.519Z,102662.63
2023-04-18T18:35:32.101Z,102663.28
2023-04-18T18:38:34.652Z,102666.25
2023-04-18T18:41:37.144Z,102678.06
2023-04-18T18:44:39.711Z,102667.56
2023-04-18T18:47:43.604Z,102677.09
2023-04-18T18:50:46.110Z,102672.16
2023-04-18T18:53:48.633Z,102678.41
2023-04-18T18:56:51.692Z,102686.28
2023-04-18T18:59:55.853Z,102681.34
2023-04-18T19:03:00.235Z,102678.03
2023-04-18T19:06:04.186Z,102687.59
2023-04-18T19:09:07.116Z,102689.06
2023-04-18T19:12:09.918Z,102690.53
2023-04-18T19:15:12.965Z,102695.66
2023-04-18T19:18:18.228Z,102699.09
2023-04-18T19:21:21.065Z,102695.78
2023-04-18T19:24:23.643Z,102704.84
2023-04-18T19:27:26.907Z,102705.00
2023-04-18T19:30:29.622Z,102703.34
2023-04-18T19:33:33.485Z,102710.69
2023-04-18T19:36:36.015Z,102713.84
2023-04-18T19:39:38.571Z,102719.75
2023-04-18T19:42:41.153Z,102720.38
2023-04-18T19:45:43.750Z,102717.09
2023-04-18T19:48:47.624Z,102713.78
2023-04-18T19:51:51.371Z,102711.66
2023-04-18T19:54:53.982Z,102716.75
2023-04-18T19:57:56.692Z,102715.75
2023-04-18T20:00:59.349Z,102710.78
2023-04-18T20:04:03.749Z,102721.97
2023-04-18T20:07:06.510Z,102722.63
2023-04-18T20:10:10.321Z,102730.50
2023-04-18T20:13:12.893Z,102716.84
2023-04-18T20:16:16.764Z,102723.84
2023-04-18T20:19:20.675Z,102730.09
2023-04-18T20:22:24.794Z,102729.94
2023-04-18T20:25:27.385Z,102727.59
2023-04-18T20:28:30.185Z,102735.59
2023-04-18T20:31:32.758Z,102736.88
2023-04-18T20:34:37.630Z,102726.97
2023-04-18T20:37:41.262Z,102741.88
2023-04-18T20:40:44.793Z,102740.03
2023-04-18T20:43:47.361Z,102742.97
2023-04-18T20:46:49.940Z,102737.53
2023-04-18T20:49:53.789Z,102737.66
2023-04-18T20:52:56.363Z,102747.78
2023-04-18T20:55:58.934Z,102745.13
2023-04-18T20:59:01.473Z,102742.44
2023-04-18T21:02:04.382Z,102750.97
2023-04-18T21:05:08.975Z,102742.69
2023-04-18T21:08:11.766Z,102748.06
2023-04-18T21:11:14.276Z,102750.69
2023-04-18T21:14:17.222Z,102750.16
2023-04-18T21:17:20.113Z,102752.75
2023-04-18T21:20:24.214Z,102761.94
2023-04-18T21:23:26.740Z,102764.22
2023-04-18T21:26:29.295Z,102774.88
2023-04-18T21:29:31.892Z,102771.25
2023-04-18T21:32:34.478Z,102769.09
2023-04-18T21:35:38.436Z,102777.25
2023-04-18T21:38:41.000Z,102781.19
2023-04-18T21:41:43.572Z,102770.66
2023-04-18T21:44:46.162Z,102769.63
2023-04-18T21:47:49.486Z,102767.47
2023-04-18T21:50:56.005Z,102768.06
2023-04-18T21:53:58.921Z,102768.19
2023-04-18T21:57:02.478Z,102775.53
2023-04-18T22:00:07.316Z,102773.34
2023-04-18T22:03:12.091Z,102772.34
2023-04-18T22:06:16.557Z,102768.50
2023-04-18T22:09:19.326Z,102772.72
2023-04-18T22:12:22.038Z,102774.19
2023-04-18T22:15:26.779Z,102771.47
2023-04-18T22:18:30.498Z,102776.03
2023-04-18T22:21:34.408Z,102768.81
2023-04-18T22:24:37.002Z,102767.78
2023-04-18T22:27:39.546Z,102770.03
2023-04-18T22:30:42.147Z,102772.94
2023-04-18T22:33:44.726Z,102765.50
2023-04-18T22:36:48.600Z,102770.84
2023-04-18T22:39:51.101Z,102776.00
2023-04-18T22:42:54.248Z,102767.75
2023-04-18T22:45:56.835Z,102772.78
2023-04-18T22:48:59.561Z,102772.59
2023-04-18T22:52:03.526Z,102769.59
2023-04-18T22:55:06.860Z,102774.13
2023-04-18T22:58:09.858Z,102776.41
2023-04-18T23:01:12.476Z,102774.75
2023-04-18T23:04:15.356Z,102773.09
2023-04-18T23:07:19.521Z,102776.16
2023-04-18T23:10:22.486Z,102775.13
2023-04-18T23:13:25.076Z,102778.84
2023-04-18T23:16:28.152Z,102782.22
2023-04-18T23:19:30.693Z,102775.63
2023-04-18T23:22:34.580Z,102783.16
2023-04-18T23:25:37.111Z,102777.34
2023-04-18T23:28:39.722Z,102772.16
2023-04-18T23:31:42.329Z,102780.22
2023-04-18T23:34:46.086Z,102779.19
2023-04-18T23:37:50.139Z,102775.88
2023-04-18T23:40:52.714Z,102775.88
2023-04-18T23:43:55.264Z,102764.75
2023-04-18T23:46:57.785Z,102774.00
2023-04-18T23:50:00.361Z,102777.09
2023-04-18T23:53:04.272Z,102778.84
2023-04-18T23:56:07.793Z,102771.06
2023-04-18T23:59:10.388Z,102763.84
